sensor_id;sensor_type;location;lat;lon;timestamp;P1;durP1;ratioP1;P2;durP2;ratioP2
7051;SDS011;3567;52.444;13.556;2023-06-14T00:02:08;5.35;;;1.65;;
7051;SDS011;3567;52.444;13.556;2023-06-14T00:04:34;2.15;;;1.35;;
7051;SDS011;3567;52.444;13.556;2023-06-14T00:07:00;1.67;;;1.58;;
7051;SDS011;3567;52.444;13.556;2023-06-14T00:09:26;2.53;;;1.63;;
7051;SDS011;3567;52.444;13.556;2023-06-14T00:11:52;1.33;;;1.25;;
7051;SDS011;3567;52.444;13.556;2023-06-14T00:14:17;4.70;;;1.98;;
7051;SDS011;3567;52.444;13.556;2023-06-14T00:16:43;2.20;;;1.70;;
7051;SDS011;3567;52.444;13.556;2023-06-14T00:19:08;4.00;;;1.90;;
7051;SDS011;3567;52.444;13.556;2023-06-14T00:21:35;2.40;;;2.20;;
7051;SDS011;3567;52.444;13.556;2023-06-14T00:24:01;1.58;;;1.48;;
7051;SDS011;3567;52.444;13.556;2023-06-14T00:26:27;3.35;;;2.13;;
7051;SDS011;3567;52.444;13.556;2023-06-14T00:28:53;3.88;;;1.95;;
7051;SDS011;3567;52.444;13.556;2023-06-14T00:31:19;6.70;;;1.80;;
7051;SDS011;3567;52.444;13.556;2023-06-14T00:33:44;1.92;;;1.83;;
7051;SDS011;3567;52.444;13.556;2023-06-14T00:36:10;2.20;;;1.80;;
7051;SDS011;3567;52.444;13.556;2023-06-14T00:38:35;2.15;;;1.92;;
7051;SDS011;3567;52.444;13.556;2023-06-14T00:41:01;2.30;;;2.10;;
7051;SDS011;3567;52.444;13.556;2023-06-14T00:43:26;3.50;;;1.88;;
7051;SDS011;3567;52.444;13.556;2023-06-14T00:45:52;17.35;;;5.10;;
7051;SDS011;3567;52.444;13.556;2023-06-14T00:48:17;6.22;;;3.30;;
7051;SDS011;3567;52.444;13.556;2023-06-14T00:50:43;2.13;;;1.98;;
7051;SDS011;3567;52.444;13.556;2023-06-14T00:53:11;3.00;;;2.20;;
7051;SDS011;3567;52.444;13.556;2023-06-14T00:55:37;3.42;;;2.00;;
7051;SDS011;3567;52.444;13.556;2023-06-14T00:58:02;2.78;;;2.28;;
7051;SDS011;3567;52.444;13.556;2023-06-14T01:00:28;2.67;;;2.13;;
7051;SDS011;3567;52.444;13.556;2023-06-14T01:02:54;4.38;;;2.22;;
7051;SDS011;3567;52.444;13.556;2023-06-14T01:05:20;2.50;;;2.30;;
7051;SDS011;3567;52.444;13.556;2023-06-14T01:08:00;3.30;;;2.38;;
7051;SDS011;3567;52.444;13.556;2023-06-14T01:11:02;2.20;;;2.10;;
7051;SDS011;3567;52.444;13.556;2023-06-14T01:13:33;2.65;;;2.45;;
7051;SDS011;3567;52.444;13.556;2023-06-14T01:16:00;2.88;;;2.70;;
7051;SDS011;3567;52.444;13.556;2023-06-14T01:18:27;3.78;;;3.33;;
7051;SDS011;3567;52.444;13.556;2023-06-14T01:20:54;3.10;;;2.45;;
7051;SDS011;3567;52.444;13.556;2023-06-14T01:23:21;2.90;;;2.40;;
7051;SDS011;3567;52.444;13.556;2023-06-14T01:25:48;3.60;;;3.28;;
7051;SDS011;3567;52.444;13.556;2023-06-14T01:28:18;3.50;;;2.35;;
7051;SDS011;3567;52.444;13.556;2023-06-14T01:30:46;2.92;;;2.55;;
7051;SDS011;3567;52.444;13.556;2023-06-14T01:33:21;4.13;;;2.22;;
7051;SDS011;3567;52.444;13.556;2023-06-14T01:35:49;6.38;;;2.65;;
7051;SDS011;3567;52.444;13.556;2023-06-14T01:38:20;2.67;;;2.47;;
7051;SDS011;3567;52.444;13.556;2023-06-14T01:40:48;3.58;;;3.28;;
7051;SDS011;3567;52.444;13.556;2023-06-14T01:43:16;4.50;;;2.63;;
7051;SDS011;3567;52.444;13.556;2023-06-14T01:45:42;10.65;;;3.60;;
7051;SDS011;3567;52.444;13.556;2023-06-14T01:48:12;4.82;;;3.42;;
7051;SDS011;3567;52.444;13.556;2023-06-14T01:50:38;5.63;;;3.15;;
7051;SDS011;3567;52.444;13.556;2023-06-14T01:53:07;4.40;;;3.05;;
7051;SDS011;3567;52.444;13.556;2023-06-14T01:55:33;5.13;;;3.05;;
7051;SDS011;3567;52.444;13.556;2023-06-14T01:58:02;6.22;;;3.50;;
7051;SDS011;3567;52.444;13.556;2023-06-14T02:00:29;3.20;;;3.00;;
7051;SDS011;3567;52.444;13.556;2023-06-14T02:02:54;3.55;;;3.00;;
7051;SDS011;3567;52.444;13.556;2023-06-14T02:05:20;2.80;;;2.58;;
7051;SDS011;3567;52.444;13.556;2023-06-14T02:07:46;3.63;;;3.30;;
7051;SDS011;3567;52.444;13.556;2023-06-14T02:10:11;3.72;;;3.42;;
7051;SDS011;3567;52.444;13.556;2023-06-14T02:12:37;4.15;;;3.85;;
7051;SDS011;3567;52.444;13.556;2023-06-14T02:15:02;6.38;;;3.65;;
7051;SDS011;3567;52.444;13.556;2023-06-14T02:17:29;3.90;;;3.60;;
7051;SDS011;3567;52.444;13.556;2023-06-14T02:19:54;12.75;;;3.50;;
7051;SDS011;3567;52.444;13.556;2023-06-14T02:22:22;4.75;;;3.67;;
7051;SDS011;3567;52.444;13.556;2023-06-14T02:24:47;4.50;;;3.88;;
7051;SDS011;3567;52.444;13.556;2023-06-14T02:27:13;4.38;;;3.88;;
7051;SDS011;3567;52.444;13.556;2023-06-14T02:29:38;4.53;;;4.07;;
7051;SDS011;3567;52.444;13.556;2023-06-14T02:32:04;4.15;;;3.88;;
7051;SDS011;3567;52.444;13.556;2023-06-14T02:34:32;4.55;;;3.75;;
7051;SDS011;3567;52.444;13.556;2023-06-14T02:36:58;4.70;;;4.03;;
7051;SDS011;3567;52.444;13.556;2023-06-14T02:39:23;7.00;;;4.38;;
7051;SDS011;3567;52.444;13.556;2023-06-14T02:41:49;5.47;;;4.68;;
7051;SDS011;3567;52.444;13.556;2023-06-14T02:44:17;7.15;;;4.70;;
7051;SDS011;3567;52.444;13.556;2023-06-14T02:46:44;3.92;;;3.63;;
7051;SDS011;3567;52.444;13.556;2023-06-14T02:49:10;5.03;;;4.15;;
7051;SDS011;3567;52.444;13.556;2023-06-14T02:51:36;4.47;;;4.07;;
7051;SDS011;3567;52.444;13.556;2023-06-14T02:54:01;5.00;;;4.38;;
7051;SDS011;3567;52.444;13.556;2023-06-14T02:56:27;5.43;;;4.40;;
7051;SDS011;3567;52.444;13.556;2023-06-14T02:58:53;7.45;;;5.03;;
7051;SDS011;3567;52.444;13.556;2023-06-14T03:01:18;4.10;;;3.83;;
7051;SDS011;3567;52.444;13.556;2023-06-14T03:03:45;5.13;;;4.80;;
7051;SDS011;3567;52.444;13.556;2023-06-14T03:06:11;7.05;;;5.18;;
7051;SDS011;3567;52.444;13.556;2023-06-14T03:08:38;7.35;;;5.18;;
7051;SDS011;3567;52.444;13.556;2023-06-14T03:11:04;6.68;;;4.22;;
7051;SDS011;3567;52.444;13.556;2023-06-14T03:13:34;4.72;;;4.43;;
7051;SDS011;3567;52.444;13.556;2023-06-14T03:16:00;4.88;;;4.15;;
7051;SDS011;3567;52.444;13.556;2023-06-14T03:18:27;8.93;;;4.78;;
7051;SDS011;3567;52.444;13.556;2023-06-14T03:20:55;4.97;;;4.63;;
7051;SDS011;3567;52.444;13.556;2023-06-14T03:23:22;10.70;;;4.60;;
7051;SDS011;3567;52.444;13.556;2023-06-14T03:25:48;5.88;;;5.05;;
7051;SDS011;3567;52.444;13.556;2023-06-14T03:28:13;5.55;;;4.80;;
7051;SDS011;3567;52.444;13.556;2023-06-14T03:30:39;4.97;;;4.68;;
7051;SDS011;3567;52.444;13.556;2023-06-14T03:33:04;8.65;;;5.25;;
7051;SDS011;3567;52.444;13.556;2023-06-14T03:35:30;12.65;;;4.43;;
7051;SDS011;3567;52.444;13.556;2023-06-14T03:37:55;6.50;;;5.18;;
7051;SDS011;3567;52.444;13.556;2023-06-14T03:40:21;5.68;;;5.18;;
7051;SDS011;3567;52.444;13.556;2023-06-14T03:42:46;7.28;;;4.85;;
7051;SDS011;3567;52.444;13.556;2023-06-14T03:45:12;5.97;;;4.88;;
7051;SDS011;3567;52.444;13.556;2023-06-14T03:47:37;6.25;;;4.65;;
7051;SDS011;3567;52.444;13.556;2023-06-14T03:50:03;5.80;;;5.40;;
7051;SDS011;3567;52.444;13.556;2023-06-14T03:52:29;6.10;;;4.88;;
7051;SDS011;3567;52.444;13.556;2023-06-14T03:54:55;8.13;;;4.80;;
7051;SDS011;3567;52.444;13.556;2023-06-14T03:57:20;6.90;;;5.53;;
7051;SDS011;3567;52.444;13.556;2023-06-14T03:59:46;5.88;;;5.28;;
7051;SDS011;3567;52.444;13.556;2023-06-14T04:02:12;8.02;;;5.18;;
7051;SDS011;3567;52.444;13.556;2023-06-14T04:04:40;5.82;;;5.32;;
7051;SDS011;3567;52.444;13.556;2023-06-14T04:07:08;10.48;;;5.82;;
7051;SDS011;3567;52.444;13.556;2023-06-14T04:09:33;6.07;;;5.50;;
7051;SDS011;3567;52.444;13.556;2023-06-14T04:11:59;9.05;;;5.68;;
7051;SDS011;3567;52.444;13.556;2023-06-14T04:14:24;8.68;;;4.97;;
7051;SDS011;3567;52.444;13.556;2023-06-14T04:16:49;6.13;;;4.88;;
7051;SDS011;3567;52.444;13.556;2023-06-14T04:19:15;7.18;;;4.43;;
7051;SDS011;3567;52.444;13.556;2023-06-14T04:21:41;9.15;;;4.85;;
7051;SDS011;3567;52.444;13.556;2023-06-14T04:24:06;5.22;;;4.75;;
7051;SDS011;3567;52.444;13.556;2023-06-14T04:26:42;9.77;;;5.65;;
7051;SDS011;3567;52.444;13.556;2023-06-14T04:29:13;6.70;;;5.88;;
7051;SDS011;3567;52.444;13.556;2023-06-14T04:31:44;12.20;;;6.32;;
7051;SDS011;3567;52.444;13.556;2023-06-14T04:34:11;5.93;;;5.32;;
7051;SDS011;3567;52.444;13.556;2023-06-14T04:36:46;7.32;;;5.93;;
7051;SDS011;3567;52.444;13.556;2023-06-14T04:39:18;8.80;;;5.53;;
7051;SDS011;3567;52.444;13.556;2023-06-14T04:41:44;7.40;;;5.28;;
7051;SDS011;3567;52.444;13.556;2023-06-14T04:44:10;7.65;;;5.13;;
7051;SDS011;3567;52.444;13.556;2023-06-14T04:46:36;6.57;;;4.97;;
7051;SDS011;3567;52.444;13.556;2023-06-14T04:49:17;4.68;;;4.25;;
7051;SDS011;3567;52.444;13.556;2023-06-14T04:51:43;5.05;;;4.65;;
7051;SDS011;3567;52.444;13.556;2023-06-14T04:54:10;5.20;;;4.80;;
7051;SDS011;3567;52.444;13.556;2023-06-14T04:56:38;5.40;;;4.90;;
7051;SDS011;3567;52.444;13.556;2023-06-14T04:59:11;4.95;;;4.45;;
7051;SDS011;3567;52.444;13.556;2023-06-14T05:01:37;5.88;;;5.32;;
7051;SDS011;3567;52.444;13.556;2023-06-14T05:04:03;9.27;;;5.50;;
7051;SDS011;3567;52.444;13.556;2023-06-14T05:06:29;6.32;;;5.82;;
7051;SDS011;3567;52.444;13.556;2023-06-14T05:08:55;6.00;;;5.45;;
7051;SDS011;3567;52.444;13.556;2023-06-14T05:11:21;5.53;;;4.38;;
7051;SDS011;3567;52.444;13.556;2023-06-14T05:13:49;8.55;;;6.00;;
7051;SDS011;3567;52.444;13.556;2023-06-14T05:16:14;6.82;;;4.80;;
7051;SDS011;3567;52.444;13.556;2023-06-14T05:18:41;12.30;;;4.85;;
7051;SDS011;3567;52.444;13.556;2023-06-14T05:21:07;6.50;;;5.90;;
7051;SDS011;3567;52.444;13.556;2023-06-14T05:23:33;6.30;;;5.00;;
7051;SDS011;3567;52.444;13.556;2023-06-14T05:25:59;6.57;;;5.82;;
7051;SDS011;3567;52.444;13.556;2023-06-14T05:28:24;6.47;;;5.03;;
7051;SDS011;3567;52.444;13.556;2023-06-14T05:30:50;5.97;;;5.38;;
7051;SDS011;3567;52.444;13.556;2023-06-14T05:33:16;6.45;;;5.55;;
7051;SDS011;3567;52.444;13.556;2023-06-14T05:35:41;7.20;;;6.50;;
7051;SDS011;3567;52.444;13.556;2023-06-14T05:38:07;5.22;;;4.72;;
7051;SDS011;3567;52.444;13.556;2023-06-14T05:40:33;7.25;;;5.30;;
7051;SDS011;3567;52.444;13.556;2023-06-14T05:42:58;5.45;;;5.03;;
7051;SDS011;3567;52.444;13.556;2023-06-14T05:45:24;7.70;;;5.18;;
7051;SDS011;3567;52.444;13.556;2023-06-14T05:47:49;4.93;;;4.40;;
7051;SDS011;3567;52.444;13.556;2023-06-14T05:50:15;7.00;;;4.90;;
7051;SDS011;3567;52.444;13.556;2023-06-14T05:52:41;5.30;;;4.80;;
7051;SDS011;3567;52.444;13.556;2023-06-14T05:55:06;8.15;;;5.32;;
7051;SDS011;3567;52.444;13.556;2023-06-14T05:57:32;6.53;;;5.93;;
7051;SDS011;3567;52.444;13.556;2023-06-14T05:59:57;7.60;;;5.80;;
7051;SDS011;3567;52.444;13.556;2023-06-14T06:02:22;12.52;;;5.13;;
7051;SDS011;3567;52.444;13.556;2023-06-14T06:04:48;8.48;;;6.13;;
7051;SDS011;3567;52.444;13.556;2023-06-14T06:07:13;7.65;;;5.75;;
7051;SDS011;3567;52.444;13.556;2023-06-14T06:09:38;11.35;;;5.53;;
7051;SDS011;3567;52.444;13.556;2023-06-14T06:12:05;9.45;;;5.70;;
7051;SDS011;3567;52.444;13.556;2023-06-14T06:14:31;6.63;;;5.47;;
7051;SDS011;3567;52.444;13.556;2023-06-14T06:16:57;8.38;;;6.03;;
7051;SDS011;3567;52.444;13.556;2023-06-14T06:19:22;6.93;;;5.72;;
7051;SDS011;3567;52.444;13.556;2023-06-14T06:21:48;7.10;;;4.78;;
7051;SDS011;3567;52.444;13.556;2023-06-14T06:24:13;6.40;;;5.40;;
7051;SDS011;3567;52.444;13.556;2023-06-14T06:26:39;8.75;;;5.28;;
7051;SDS011;3567;52.444;13.556;2023-06-14T06:29:05;8.25;;;5.63;;
7051;SDS011;3567;52.444;13.556;2023-06-14T06:31:30;5.93;;;5.25;;
7051;SDS011;3567;52.444;13.556;2023-06-14T06:33:56;9.88;;;4.82;;
7051;SDS011;3567;52.444;13.556;2023-06-14T06:36:21;6.60;;;5.65;;
7051;SDS011;3567;52.444;13.556;2023-06-14T06:38:47;12.10;;;6.00;;
7051;SDS011;3567;52.444;13.556;2023-06-14T06:41:13;7.30;;;4.97;;
7051;SDS011;3567;52.444;13.556;2023-06-14T06:43:38;6.53;;;5.60;;
7051;SDS011;3567;52.444;13.556;2023-06-14T06:46:04;7.28;;;5.40;;
7051;SDS011;3567;52.444;13.556;2023-06-14T06:48:29;5.60;;;5.10;;
7051;SDS011;3567;52.444;13.556;2023-06-14T06:50:55;8.70;;;6.05;;
7051;SDS011;3567;52.444;13.556;2023-06-14T06:53:20;7.20;;;5.28;;
7051;SDS011;3567;52.444;13.556;2023-06-14T06:55:45;8.02;;;5.15;;
7051;SDS011;3567;52.444;13.556;2023-06-14T06:58:11;5.97;;;4.93;;
7051;SDS011;3567;52.444;13.556;2023-06-14T07:00:37;6.07;;;5.28;;
7051;SDS011;3567;52.444;13.556;2023-06-14T07:03:03;11.35;;;5.82;;
7051;SDS011;3567;52.444;13.556;2023-06-14T07:05:28;9.60;;;4.90;;
7051;SDS011;3567;52.444;13.556;2023-06-14T07:07:54;8.00;;;5.13;;
7051;SDS011;3567;52.444;13.556;2023-06-14T07:10:20;6.00;;;4.97;;
7051;SDS011;3567;52.444;13.556;2023-06-14T07:12:45;4.82;;;4.43;;
7051;SDS011;3567;52.444;13.556;2023-06-14T07:15:11;6.55;;;4.65;;
7051;SDS011;3567;52.444;13.556;2023-06-14T07:17:37;14.73;;;5.38;;
7051;SDS011;3567;52.444;13.556;2023-06-14T07:20:02;5.65;;;5.15;;
7051;SDS011;3567;52.444;13.556;2023-06-14T07:22:33;5.45;;;4.65;;
7051;SDS011;3567;52.444;13.556;2023-06-14T07:24:58;9.98;;;4.75;;
7051;SDS011;3567;52.444;13.556;2023-06-14T07:27:23;7.28;;;5.18;;
7051;SDS011;3567;52.444;13.556;2023-06-14T07:29:49;9.25;;;4.57;;
7051;SDS011;3567;52.444;13.556;2023-06-14T07:32:14;4.70;;;4.30;;
7051;SDS011;3567;52.444;13.556;2023-06-14T07:34:40;8.27;;;4.72;;
7051;SDS011;3567;52.444;13.556;2023-06-14T07:37:05;8.50;;;4.60;;
7051;SDS011;3567;52.444;13.556;2023-06-14T07:39:31;3.90;;;3.53;;
7051;SDS011;3567;52.444;13.556;2023-06-14T07:41:56;4.70;;;3.83;;
7051;SDS011;3567;52.444;13.556;2023-06-14T07:44:21;8.82;;;3.95;;
7051;SDS011;3567;52.444;13.556;2023-06-14T07:46:47;6.78;;;4.45;;
7051;SDS011;3567;52.444;13.556;2023-06-14T07:49:14;4.80;;;4.35;;
7051;SDS011;3567;52.444;13.556;2023-06-14T07:51:40;6.18;;;4.30;;
7051;SDS011;3567;52.444;13.556;2023-06-14T07:54:05;9.00;;;4.30;;
7051;SDS011;3567;52.444;13.556;2023-06-14T07:56:32;5.35;;;3.88;;
7051;SDS011;3567;52.444;13.556;2023-06-14T07:58:58;5.05;;;4.07;;
7051;SDS011;3567;52.444;13.556;2023-06-14T08:01:23;6.78;;;3.92;;
7051;SDS011;3567;52.444;13.556;2023-06-14T08:03:50;4.53;;;3.53;;
7051;SDS011;3567;52.444;13.556;2023-06-14T08:06:15;4.25;;;3.70;;
7051;SDS011;3567;52.444;13.556;2023-06-14T08:08:41;7.78;;;4.05;;
7051;SDS011;3567;52.444;13.556;2023-06-14T08:11:06;8.60;;;4.20;;
7051;SDS011;3567;52.444;13.556;2023-06-14T08:13:32;8.98;;;4.05;;
7051;SDS011;3567;52.444;13.556;2023-06-14T08:15:57;6.32;;;3.90;;
7051;SDS011;3567;52.444;13.556;2023-06-14T08:18:23;3.97;;;3.05;;
7051;SDS011;3567;52.444;13.556;2023-06-14T08:20:48;4.10;;;2.88;;
7051;SDS011;3567;52.444;13.556;2023-06-14T08:23:15;7.00;;;3.92;;
7051;SDS011;3567;52.444;13.556;2023-06-14T08:25:44;6.80;;;3.80;;
7051;SDS011;3567;52.444;13.556;2023-06-14T08:28:09;9.80;;;3.72;;
7051;SDS011;3567;52.444;13.556;2023-06-14T08:30:35;3.70;;;3.38;;
7051;SDS011;3567;52.444;13.556;2023-06-14T08:33:00;6.03;;;4.18;;
7051;SDS011;3567;52.444;13.556;2023-06-14T08:35:26;2.88;;;2.67;;
7051;SDS011;3567;52.444;13.556;2023-06-14T08:37:51;6.05;;;3.08;;
7051;SDS011;3567;52.444;13.556;2023-06-14T08:40:20;3.30;;;3.10;;
7051;SDS011;3567;52.444;13.556;2023-06-14T08:42:53;3.33;;;3.03;;
7051;SDS011;3567;52.444;13.556;2023-06-14T08:45:23;3.88;;;2.38;;
7051;SDS011;3567;52.444;13.556;2023-06-14T08:47:50;3.90;;;2.70;;
7051;SDS011;3567;52.444;13.556;2023-06-14T08:50:26;5.60;;;2.40;;
7051;SDS011;3567;52.444;13.556;2023-06-14T08:52:55;3.55;;;2.83;;
7051;SDS011;3567;52.444;13.556;2023-06-14T08:55:25;2.90;;;2.70;;
7051;SDS011;3567;52.444;13.556;2023-06-14T08:57:55;3.95;;;2.17;;
7051;SDS011;3567;52.444;13.556;2023-06-14T09:00:24;4.65;;;2.75;;
7051;SDS011;3567;52.444;13.556;2023-06-14T09:02:51;2.95;;;2.42;;
7051;SDS011;3567;52.444;13.556;2023-06-14T09:05:25;4.75;;;2.80;;
7051;SDS011;3567;52.444;13.556;2023-06-14T09:07:51;6.97;;;2.45;;
7051;SDS011;3567;52.444;13.556;2023-06-14T09:10:17;3.53;;;2.65;;
7051;SDS011;3567;52.444;13.556;2023-06-14T09:12:43;6.00;;;2.65;;
7051;SDS011;3567;52.444;13.556;2023-06-14T09:15:09;5.72;;;2.58;;
7051;SDS011;3567;52.444;13.556;2023-06-14T09:17:35;3.10;;;2.85;;
7051;SDS011;3567;52.444;13.556;2023-06-14T09:20:04;3.17;;;2.33;;
7051;SDS011;3567;52.444;13.556;2023-06-14T09:22:31;4.38;;;2.58;;
7051;SDS011;3567;52.444;13.556;2023-06-14T09:24:57;3.80;;;2.70;;
7051;SDS011;3567;52.444;13.556;2023-06-14T09:27:22;2.63;;;2.17;;
7051;SDS011;3567;52.444;13.556;2023-06-14T09:29:48;3.88;;;2.78;;
7051;SDS011;3567;52.444;13.556;2023-06-14T09:32:13;5.05;;;2.53;;
7051;SDS011;3567;52.444;13.556;2023-06-14T09:34:39;5.25;;;2.50;;
7051;SDS011;3567;52.444;13.556;2023-06-14T09:37:05;3.40;;;2.78;;
7051;SDS011;3567;52.444;13.556;2023-06-14T09:39:30;3.47;;;3.03;;
7051;SDS011;3567;52.444;13.556;2023-06-14T09:41:56;6.60;;;2.78;;
7051;SDS011;3567;52.444;13.556;2023-06-14T09:44:21;5.85;;;2.65;;
7051;SDS011;3567;52.444;13.556;2023-06-14T09:46:50;3.92;;;2.33;;
7051;SDS011;3567;52.444;13.556;2023-06-14T09:49:16;6.80;;;2.40;;
7051;SDS011;3567;52.444;13.556;2023-06-14T09:51:45;3.38;;;2.25;;
7051;SDS011;3567;52.444;13.556;2023-06-14T09:54:15;4.32;;;2.35;;
7051;SDS011;3567;52.444;13.556;2023-06-14T09:56:42;7.57;;;2.13;;
7051;SDS011;3567;52.444;13.556;2023-06-14T09:59:10;8.95;;;3.15;;
7051;SDS011;3567;52.444;13.556;2023-06-14T10:01:41;11.20;;;2.58;;
7051;SDS011;3567;52.444;13.556;2023-06-14T10:04:07;5.38;;;2.45;;
7051;SDS011;3567;52.444;13.556;2023-06-14T10:06:41;7.07;;;2.42;;
7051;SDS011;3567;52.444;13.556;2023-06-14T10:09:10;5.63;;;2.15;;
7051;SDS011;3567;52.444;13.556;2023-06-14T10:11:37;3.53;;;2.53;;
7051;SDS011;3567;52.444;13.556;2023-06-14T10:14:08;9.75;;;3.28;;
7051;SDS011;3567;52.444;13.556;2023-06-14T10:16:59;8.48;;;2.15;;
7051;SDS011;3567;52.444;13.556;2023-06-14T10:19:29;4.80;;;2.47;;
7051;SDS011;3567;52.444;13.556;2023-06-14T10:22:09;2.80;;;2.55;;
7051;SDS011;3567;52.444;13.556;2023-06-14T10:24:43;12.88;;;3.20;;
7051;SDS011;3567;52.444;13.556;2023-06-14T10:27:09;2.97;;;2.58;;
7051;SDS011;3567;52.444;13.556;2023-06-14T10:32:18;3.20;;;2.53;;
7051;SDS011;3567;52.444;13.556;2023-06-14T10:34:53;3.72;;;2.47;;
7051;SDS011;3567;52.444;13.556;2023-06-14T10:37:20;8.23;;;2.70;;
7051;SDS011;3567;52.444;13.556;2023-06-14T10:39:46;2.88;;;2.67;;
7051;SDS011;3567;52.444;13.556;2023-06-14T10:42:12;3.20;;;2.88;;
7051;SDS011;3567;52.444;13.556;2023-06-14T10:44:39;3.10;;;2.33;;
7051;SDS011;3567;52.444;13.556;2023-06-14T10:47:09;3.90;;;2.85;;
7051;SDS011;3567;52.444;13.556;2023-06-14T10:49:45;4.45;;;2.83;;
7051;SDS011;3567;52.444;13.556;2023-06-14T10:52:16;5.30;;;2.55;;
7051;SDS011;3567;52.444;13.556;2023-06-14T10:57:29;4.20;;;2.45;;
7051;SDS011;3567;52.444;13.556;2023-06-14T10:59:57;3.33;;;2.40;;
7051;SDS011;3567;52.444;13.556;2023-06-14T11:05:08;3.10;;;2.38;;
7051;SDS011;3567;52.444;13.556;2023-06-14T11:10:31;3.85;;;2.05;;
7051;SDS011;3567;52.444;13.556;2023-06-14T11:13:05;2.65;;;2.45;;
7051;SDS011;3567;52.444;13.556;2023-06-14T11:15:32;3.33;;;2.60;;
7051;SDS011;3567;52.444;13.556;2023-06-14T11:18:02;6.20;;;2.67;;
7051;SDS011;3567;52.444;13.556;2023-06-14T11:20:33;7.32;;;3.50;;
7051;SDS011;3567;52.444;13.556;2023-06-14T11:23:00;15.07;;;5.80;;
7051;SDS011;3567;52.444;13.556;2023-06-14T11:25:26;4.28;;;3.13;;
7051;SDS011;3567;52.444;13.556;2023-06-14T11:27:53;4.95;;;3.65;;
7051;SDS011;3567;52.444;13.556;2023-06-14T11:30:19;10.35;;;3.53;;
7051;SDS011;3567;52.444;13.556;2023-06-14T11:32:48;8.10;;;3.17;;
7051;SDS011;3567;52.444;13.556;2023-06-14T11:35:15;5.68;;;2.97;;
7051;SDS011;3567;52.444;13.556;2023-06-14T11:37:41;5.97;;;2.67;;
7051;SDS011;3567;52.444;13.556;2023-06-14T11:40:07;6.70;;;2.28;;
7051;SDS011;3567;52.444;13.556;2023-06-14T11:42:35;5.30;;;2.90;;
7051;SDS011;3567;52.444;13.556;2023-06-14T11:45:01;5.72;;;3.00;;
7051;SDS011;3567;52.444;13.556;2023-06-14T11:47:34;3.97;;;2.85;;
7051;SDS011;3567;52.444;13.556;2023-06-14T11:50:03;2.97;;;2.25;;
7051;SDS011;3567;52.444;13.556;2023-06-14T11:52:31;3.80;;;2.13;;
7051;SDS011;3567;52.444;13.556;2023-06-14T11:54:57;4.07;;;2.42;;
7051;SDS011;3567;52.444;13.556;2023-06-14T11:57:23;3.33;;;2.50;;
7051;SDS011;3567;52.444;13.556;2023-06-14T11:59:49;5.72;;;2.47;;
7051;SDS011;3567;52.444;13.556;2023-06-14T12:02:15;3.67;;;2.45;;
7051;SDS011;3567;52.444;13.556;2023-06-14T12:04:42;4.45;;;2.35;;
7051;SDS011;3567;52.444;13.556;2023-06-14T12:07:08;2.78;;;2.45;;
7051;SDS011;3567;52.444;13.556;2023-06-14T12:09:36;4.00;;;2.15;;
7051;SDS011;3567;52.444;13.556;2023-06-14T12:12:01;5.00;;;4.57;;
7051;SDS011;3567;52.444;13.556;2023-06-14T12:14:29;3.67;;;2.38;;
7051;SDS011;3567;52.444;13.556;2023-06-14T12:17:03;3.90;;;2.30;;
7051;SDS011;3567;52.444;13.556;2023-06-14T12:19:31;4.45;;;2.08;;
7051;SDS011;3567;52.444;13.556;2023-06-14T12:21:57;4.55;;;2.20;;
7051;SDS011;3567;52.444;13.556;2023-06-14T12:24:28;6.18;;;2.50;;
7051;SDS011;3567;52.444;13.556;2023-06-14T12:26:54;3.83;;;2.47;;
7051;SDS011;3567;52.444;13.556;2023-06-14T12:29:22;4.40;;;2.47;;
7051;SDS011;3567;52.444;13.556;2023-06-14T12:31:48;4.65;;;2.05;;
7051;SDS011;3567;52.444;13.556;2023-06-14T12:34:14;4.72;;;2.38;;
7051;SDS011;3567;52.444;13.556;2023-06-14T12:36:39;3.90;;;2.38;;
7051;SDS011;3567;52.444;13.556;2023-06-14T12:39:09;4.82;;;2.38;;
7051;SDS011;3567;52.444;13.556;2023-06-14T12:41:34;3.28;;;2.08;;
7051;SDS011;3567;52.444;13.556;2023-06-14T12:43:59;5.25;;;2.22;;
7051;SDS011;3567;52.444;13.556;2023-06-14T12:46:29;6.00;;;2.17;;
7051;SDS011;3567;52.444;13.556;2023-06-14T12:48:56;4.32;;;2.05;;
7051;SDS011;3567;52.444;13.556;2023-06-14T12:51:21;2.78;;;2.40;;
7051;SDS011;3567;52.444;13.556;2023-06-14T12:53:47;6.90;;;2.35;;
7051;SDS011;3567;52.444;13.556;2023-06-14T12:56:13;4.88;;;2.00;;
7051;SDS011;3567;52.444;13.556;2023-06-14T12:58:39;4.00;;;2.13;;
7051;SDS011;3567;52.444;13.556;2023-06-14T13:01:04;10.95;;;9.55;;
7051;SDS011;3567;52.444;13.556;2023-06-14T13:03:30;3.33;;;2.45;;
7051;SDS011;3567;52.444;13.556;2023-06-14T13:05:55;3.25;;;2.28;;
7051;SDS011;3567;52.444;13.556;2023-06-14T13:08:21;3.28;;;2.03;;
7051;SDS011;3567;52.444;13.556;2023-06-14T13:10:47;2.42;;;2.17;;
7051;SDS011;3567;52.444;13.556;2023-06-14T13:13:12;2.40;;;2.20;;
7051;SDS011;3567;52.444;13.556;2023-06-14T13:15:38;3.90;;;2.60;;
7051;SDS011;3567;52.444;13.556;2023-06-14T13:18:04;6.45;;;2.70;;
7051;SDS011;3567;52.444;13.556;2023-06-14T13:20:30;9.57;;;3.08;;
7051;SDS011;3567;52.444;13.556;2023-06-14T13:22:56;4.80;;;2.58;;
7051;SDS011;3567;52.444;13.556;2023-06-14T13:25:22;8.25;;;2.80;;
7051;SDS011;3567;52.444;13.556;2023-06-14T13:27:47;4.07;;;2.58;;
7051;SDS011;3567;52.444;13.556;2023-06-14T13:30:13;2.92;;;2.25;;
7051;SDS011;3567;52.444;13.556;2023-06-14T13:32:39;3.13;;;2.45;;
7051;SDS011;3567;52.444;13.556;2023-06-14T13:35:04;6.55;;;2.53;;
7051;SDS011;3567;52.444;13.556;2023-06-14T13:37:30;4.50;;;2.60;;
7051;SDS011;3567;52.444;13.556;2023-06-14T13:39:56;2.63;;;2.45;;
7051;SDS011;3567;52.444;13.556;2023-06-14T13:42:21;5.22;;;1.77;;
7051;SDS011;3567;52.444;13.556;2023-06-14T13:44:46;5.32;;;2.60;;
7051;SDS011;3567;52.444;13.556;2023-06-14T13:47:12;20.65;;;5.45;;
7051;SDS011;3567;52.444;13.556;2023-06-14T13:49:37;12.98;;;2.97;;
7051;SDS011;3567;52.444;13.556;2023-06-14T13:52:02;3.60;;;2.50;;
7051;SDS011;3567;52.444;13.556;2023-06-14T13:54:28;4.80;;;3.05;;
7051;SDS011;3567;52.444;13.556;2023-06-14T13:56:54;5.60;;;2.42;;
7051;SDS011;3567;52.444;13.556;2023-06-14T13:59:19;2.75;;;2.55;;
7051;SDS011;3567;52.444;13.556;2023-06-14T14:01:45;4.35;;;2.58;;
7051;SDS011;3567;52.444;13.556;2023-06-14T14:04:10;4.07;;;2.63;;
7051;SDS011;3567;52.444;13.556;2023-06-14T14:06:36;4.82;;;3.75;;
7051;SDS011;3567;52.444;13.556;2023-06-14T14:09:02;10.80;;;2.33;;
7051;SDS011;3567;52.444;13.556;2023-06-14T14:11:27;5.05;;;2.78;;
7051;SDS011;3567;52.444;13.556;2023-06-14T14:13:53;4.22;;;2.22;;
7051;SDS011;3567;52.444;13.556;2023-06-14T14:16:18;3.28;;;2.28;;
7051;SDS011;3567;52.444;13.556;2023-06-14T14:18:45;4.45;;;2.53;;
7051;SDS011;3567;52.444;13.556;2023-06-14T14:21:11;6.22;;;3.20;;
7051;SDS011;3567;52.444;13.556;2023-06-14T14:23:36;5.35;;;2.70;;
7051;SDS011;3567;52.444;13.556;2023-06-14T14:26:02;3.97;;;2.20;;
7051;SDS011;3567;52.444;13.556;2023-06-14T14:28:29;4.93;;;2.92;;
7051;SDS011;3567;52.444;13.556;2023-06-14T14:30:56;6.53;;;2.22;;
7051;SDS011;3567;52.444;13.556;2023-06-14T14:33:21;4.55;;;2.95;;
7051;SDS011;3567;52.444;13.556;2023-06-14T14:35:47;4.75;;;2.38;;
7051;SDS011;3567;52.444;13.556;2023-06-14T14:38:12;7.25;;;2.75;;
7051;SDS011;3567;52.444;13.556;2023-06-14T14:40:42;6.53;;;2.58;;
7051;SDS011;3567;52.444;13.556;2023-06-14T14:43:08;2.42;;;1.92;;
7051;SDS011;3567;52.444;13.556;2023-06-14T14:45:35;4.32;;;2.40;;
7051;SDS011;3567;52.444;13.556;2023-06-14T14:48:01;6.93;;;2.72;;
7051;SDS011;3567;52.444;13.556;2023-06-14T14:50:27;10.40;;;2.42;;
7051;SDS011;3567;52.444;13.556;2023-06-14T14:52:52;4.72;;;2.00;;
7051;SDS011;3567;52.444;13.556;2023-06-14T14:55:18;3.60;;;2.53;;
7051;SDS011;3567;52.444;13.556;2023-06-14T14:57:45;9.82;;;3.03;;
7051;SDS011;3567;52.444;13.556;2023-06-14T15:00:12;4.55;;;2.13;;
7051;SDS011;3567;52.444;13.556;2023-06-14T15:02:38;2.58;;;2.33;;
7051;SDS011;3567;52.444;13.556;2023-06-14T15:05:03;4.45;;;2.50;;
7051;SDS011;3567;52.444;13.556;2023-06-14T15:07:30;7.68;;;2.05;;
7051;SDS011;3567;52.444;13.556;2023-06-14T15:09:56;7.00;;;2.70;;